»·PEaware :: N780MZ KPDX-KBFI

N780MZ :: KPDX-KBFI

FLIGHT INFORMATION

Flight Status: Arrived
Operator: Privately registered:
United States
More flights under this callsign
Pilot: Elliott T. (30246)
Aircraft: SOCATA TBM-900
(TBM9)
More flights by this aircraft type
Origin: KPDX Portland Intl
United States
Destination: KBFI Boeing Field/King Co Intl
United States
More flights between these airports :: More routes between these airports
Route:
File this flight plan on PilotEdge
Remarks:
Altitude:
(Current/Filed)
7,500ft
Speed:
(Current/Filed)
200kts
Departed: 08-Aug-20 07:26 PM
Arrived: 08-Aug-20 08:02 PM
Distance/Time
Traveled:
117nm/0:35
Distance/Time
To Go:
Arrived

Flight Plot

Page will automatically refresh every two minutes.

Flight plan parsing failed; only flown route is shown


Map Options




Map Legend


Flown Route
Filed Route
Departure Airport
Arrival Airport
Navaid (VOR, NDB)
Fix

Horizontal Profiles

Position Reports

Time Latitude Longitude Heading Altitude Ground
Speed
08-Aug-20 19:11 45.587435 -122.583524 208 19ft 0kts
08-Aug-20 19:12 45.587435 -122.583524 208 19ft 0kts
08-Aug-20 19:13 45.587435 -122.583524 208 19ft 0kts
08-Aug-20 19:14 45.587435 -122.583524 208 19ft 0kts
08-Aug-20 19:15 45.587435 -122.583524 208 19ft 0kts
08-Aug-20 19:16 45.587435 -122.583524 208 19ft 0kts
08-Aug-20 19:17 45.587307 -122.583558 164 19ft 4kts
08-Aug-20 19:18 45.587530 -122.582850 17 19ft 4kts
08-Aug-20 19:19 45.587926 -122.581172 116 19ft 8kts
08-Aug-20 19:20 45.586589 -122.577757 117 19ft 10kts
08-Aug-20 19:21 45.585132 -122.573946 119 20ft 11kts
08-Aug-20 19:22 45.583615 -122.570073 117 19ft 11kts
08-Aug-20 19:23 45.582767 -122.567647 84 19ft 1kts
08-Aug-20 19:24 45.583483 -122.566994 330 19ft 8kts
08-Aug-20 19:25 45.594893 -122.594328 302 997ft 136kts
08-Aug-20 19:26 45.632970 -122.594545 18 3282ft 163kts
08-Aug-20 19:27 45.674433 -122.568378 19 5568ft 168kts
08-Aug-20 19:28 45.717975 -122.538405 21 7516ft 199kts
08-Aug-20 19:29 45.777148 -122.509228 11 7495ft 236kts
08-Aug-20 19:30 45.843706 -122.488951 4 7494ft 248kts
08-Aug-20 19:31 45.912882 -122.475725 4 7493ft 249kts
08-Aug-20 19:32 45.981963 -122.479422 354 7504ft 248kts
08-Aug-20 19:33 46.051079 -122.482901 354 7519ft 248kts
08-Aug-20 19:34 46.120012 -122.485436 354 7529ft 248kts
08-Aug-20 19:35 46.189469 -122.487802 354 7529ft 249kts
08-Aug-20 19:36 46.258757 -122.490261 354 7529ft 249kts
08-Aug-20 19:37 46.328302 -122.492704 354 7529ft 249kts
08-Aug-20 19:38 46.397580 -122.497711 350 7529ft 248kts
08-Aug-20 19:39 46.465053 -122.516753 344 7532ft 246kts
08-Aug-20 19:40 46.531671 -122.537689 344 7535ft 246kts
08-Aug-20 19:41 46.599830 -122.541052 4 7540ft 250kts
08-Aug-20 19:42 46.668699 -122.521446 14 7542ft 252kts
08-Aug-20 19:43 46.733731 -122.489704 14 7548ft 251kts
08-Aug-20 19:44 46.799806 -122.458049 14 7550ft 251kts
08-Aug-20 19:45 46.866391 -122.426504 14 7552ft 251kts
08-Aug-20 19:46 46.933427 -122.395124 14 7505ft 250kts
08-Aug-20 19:47 46.996813 -122.365133 21 7316ft 224kts
08-Aug-20 19:48 47.045974 -122.328631 24 6477ft 196kts
08-Aug-20 19:49 47.093375 -122.291791 30 5437ft 189kts
08-Aug-20 19:50 47.137750 -122.250594 30 4507ft 191kts
08-Aug-20 19:51 47.183404 -122.208774 30 3966ft 190kts
08-Aug-20 19:52 47.229242 -122.179137 9 3504ft 173kts
08-Aug-20 19:53 47.274299 -122.173267 0 3501ft 154kts
08-Aug-20 19:54 47.316270 -122.170801 354 3500ft 148kts
08-Aug-20 19:55 47.354296 -122.190853 335 3502ft 144kts
08-Aug-20 19:56 47.391253 -122.214057 335 3399ft 149kts
08-Aug-20 19:57 47.432001 -122.239914 335 2702ft 174kts
08-Aug-20 19:58 47.474685 -122.260623 342 1189ft 131kts
08-Aug-20 19:59 47.501742 -122.278814 328 408ft 80kts
08-Aug-20 20:00 47.519945 -122.293957 329 40ft 71kts
08-Aug-20 20:01 47.527387 -122.298833 33 16ft 5kts
08-Aug-20 20:02 47.528428 -122.298392 353 16ft 10kts
08-Aug-20 20:03 47.531821 -122.300962 331 18ft 14kts
08-Aug-20 20:04 47.533602 -122.301289 326 21ft 0kts

Navigation Log

Ident Type
Flight plan parsing failed, navigation log unavailable